Time;durP1;ratioP1;P1;durP2;ratioP2;P2;SDS_P1;SDS_P2;PMS_P1;PMS_P2;Temp;Humidity;BMP_temperature;BMP_pressure;BME280_temperature;BME280_humidity;BME280_pressure;Samples;Min_cycle;Max_cycle;Signal;HPM_P1;HPM_P2
2023/03/02 00:00:51;;;;;;;12.20;6.65;;;4.20;99.90;;;;;;4184311;28;20068;-83
2023/03/02 00:02:51;;;;;;;12.70;6.07;;;4.70;99.90;;;;;;4171517;28;20521;-84
2023/03/02 00:04:57;;;;;;;14.13;6.70;;;4.50;99.90;;;;;;4183299;28;20049;-84
2023/03/02 00:07:02;;;;;;;9.25;5.65;;;4.60;99.90;;;;;;4184999;28;20060;-83
2023/03/02 00:09:04;;;;;;;8.23;5.03;;;4.20;99.90;;;;;;4169761;28;20080;-83
2023/03/02 00:11:05;;;;;;;10.05;5.20;;;4.20;99.90;;;;;;4185031;28;20048;-84
2023/03/02 00:13:06;;;;;;;8.05;5.53;;;4.20;99.90;;;;;;4169290;28;20045;-83
2023/03/02 00:15:08;;;;;;;10.57;5.22;;;4.20;99.90;;;;;;4167007;28;20120;-85
2023/03/02 00:17:11;;;;;;;9.00;5.38;;;4.20;99.90;;;;;;4175953;28;20448;-83
2023/03/02 00:19:15;;;;;;;5.82;4.10;;;4.20;99.90;;;;;;4178007;28;20037;-83
2023/03/02 00:21:16;;;;;;;7.53;5.03;;;4.20;99.90;;;;;;4184148;28;20040;-83
2023/03/02 00:23:17;;;;;;;8.13;4.80;;;4.10;99.90;;;;;;4177524;28;20048;-83
2023/03/02 00:25:18;;;;;;;6.95;4.88;;;4.10;99.90;;;;;;4167092;28;20042;-82
2023/03/02 00:27:18;;;;;;;8.70;4.60;;;4.10;99.90;;;;;;4185550;28;20041;-84
2023/03/02 00:29:19;;;;;;;10.55;4.50;;;4.10;99.90;;;;;;4184061;28;20045;-83
2023/03/02 00:31:20;;;;;;;5.90;3.95;;;4.00;99.90;;;;;;4183074;28;20392;-83
2023/03/02 00:33:21;;;;;;;5.10;3.47;;;4.00;99.90;;;;;;4170188;28;20041;-83
2023/03/02 00:35:21;;;;;;;6.88;4.25;;;4.00;99.90;;;;;;4182871;28;20115;-83
2023/03/02 00:37:24;;;;;;;8.20;4.53;;;4.00;99.90;;;;;;4169446;28;20047;-84
2023/03/02 00:39:25;;;;;;;6.82;3.17;;;4.00;99.90;;;;;;4182096;28;20037;-84
2023/03/02 00:41:26;;;;;;;7.70;4.20;;;4.20;99.90;;;;;;4168351;28;20052;-84
2023/03/02 00:43:27;;;;;;;5.68;3.85;;;3.80;99.90;;;;;;4164447;28;20050;-84
2023/03/02 00:45:27;;;;;;;6.13;4.13;;;4.10;99.90;;;;;;4184112;28;20045;-83
2023/03/02 00:47:31;;;;;;;8.63;3.92;;;3.80;99.90;;;;;;4182210;28;20033;-84
2023/03/02 00:49:35;;;;;;;7.32;4.32;;;3.80;99.90;;;;;;4153932;28;20433;-84
2023/03/02 00:51:36;;;;;;;6.85;4.30;;;3.70;99.90;;;;;;4163260;28;20045;-83
2023/03/02 00:53:38;;;;;;;7.85;3.72;;;4.00;99.90;;;;;;4161828;28;20051;-82
2023/03/02 00:55:40;;;;;;;8.05;4.07;;;3.70;99.90;;;;;;4183450;28;20060;-83
2023/03/02 00:57:41;;;;;;;6.00;4.07;;;3.70;99.90;;;;;;4162328;28;20116;-84
2023/03/02 00:59:43;;;;;;;8.98;4.35;;;3.80;99.90;;;;;;4145694;28;20053;-83
2023/03/02 01:01:56;;;;;;;7.55;3.95;;;3.60;99.90;;;;;;4183746;28;20136;-84
2023/03/02 01:03:57;;;;;;;8.38;4.63;;;3.80;99.90;;;;;;4177777;28;20047;-83
2023/03/02 01:05:57;;;;;;;10.07;5.03;;;3.60;99.90;;;;;;4140049;28;20061;-83
2023/03/02 01:07:58;;;;;;;6.95;4.57;;;3.60;99.90;;;;;;4165158;28;20103;-83
2023/03/02 01:09:59;;;;;;;7.78;4.70;;;3.60;99.90;;;;;;4142644;28;20050;-83
2023/03/02 01:12:00;;;;;;;9.15;4.85;;;3.90;99.90;;;;;;4180397;28;20055;-83
2023/03/02 01:14:01;;;;;;;6.93;4.53;;;3.60;99.90;;;;;;4183647;28;20057;-83
2023/03/02 01:16:02;;;;;;;8.00;4.85;;;3.60;99.90;;;;;;4176544;28;20854;-83
2023/03/02 01:18:03;;;;;;;7.20;4.35;;;3.60;99.90;;;;;;4173219;28;20041;-83
2023/03/02 01:20:07;;;;;;;8.70;4.63;;;3.60;99.90;;;;;;4183699;28;20056;-83
2023/03/02 01:22:09;;;;;;;9.05;4.68;;;3.60;99.90;;;;;;4183312;28;20072;-84
2023/03/02 01:24:10;;;;;;;8.43;5.15;;;3.60;99.90;;;;;;4183770;28;20045;-83
2023/03/02 01:26:12;;;;;;;9.60;5.80;;;3.60;99.90;;;;;;4141700;28;20494;-83
2023/03/02 01:28:13;;;;;;;10.75;5.60;;;3.60;99.90;;;;;;4177372;28;20048;-84
2023/03/02 01:30:14;;;;;;;8.38;4.82;;;3.60;99.90;;;;;;4150718;28;20054;-83
2023/03/02 01:32:14;;;;;;;8.77;5.50;;;3.60;99.90;;;;;;4141602;28;20114;-83
2023/03/02 01:34:16;;;;;;;8.70;5.43;;;3.60;99.90;;;;;;4144373;28;20060;-82
2023/03/02 01:36:18;;;;;;;10.32;5.35;;;3.60;99.90;;;;;;4176425;28;20140;-82
2023/03/02 01:38:19;;;;;;;9.60;5.60;;;3.60;99.90;;;;;;4169265;28;20041;-83
2023/03/02 01:40:20;;;;;;;11.63;5.70;;;3.70;99.90;;;;;;4162171;28;20051;-82
2023/03/02 01:42:21;;;;;;;9.68;5.88;;;3.50;99.90;;;;;;4143499;28;20097;-83
2023/03/02 01:44:37;;;;;;;10.07;5.82;;;3.60;99.90;;;;;;4145473;28;20105;-83
2023/03/02 01:46:37;;;;;;;12.80;6.28;;;3.50;99.90;;;;;;4184955;28;20056;-83
2023/03/02 01:49:03;;;;;;;9.90;5.93;;;3.50;99.90;;;;;;4154488;28;20060;-83
2023/03/02 01:51:06;;;;;;;16.02;7.40;;;3.40;99.90;;;;;;4153282;28;20061;-82
2023/03/02 01:53:07;;;;;;;15.52;7.18;;;3.40;99.90;;;;;;4165876;28;20081;-82
2023/03/02 01:55:13;;;;;;;11.30;5.90;;;3.30;99.90;;;;;;4182447;28;20106;-84
2023/03/02 01:57:20;;;;;;;13.45;7.57;;;3.30;99.90;;;;;;4150471;28;20101;-83
2023/03/02 01:59:22;;;;;;;13.27;7.30;;;3.30;99.90;;;;;;4147146;28;20188;-84
2023/03/02 02:01:25;;;;;;;15.38;7.88;;;3.30;99.90;;;;;;4150492;28;20057;-84
2023/03/02 02:03:29;;;;;;;14.45;8.00;;;3.50;99.90;;;;;;4145601;28;20129;-83
2023/03/02 02:05:30;;;;;;;15.50;7.90;;;3.30;99.90;;;;;;4168742;28;20505;-83
2023/03/02 02:07:30;;;;;;;14.10;7.65;;;3.30;99.90;;;;;;4179278;28;20103;-83
2023/03/02 02:09:36;;;;;;;19.85;8.30;;;3.20;99.90;;;;;;4160706;28;20513;-83
2023/03/02 02:11:38;;;;;;;18.25;8.73;;;3.50;99.90;;;;;;4166985;28;20041;-83
2023/03/02 02:13:41;;;;;;;18.45;8.45;;;3.60;99.90;;;;;;4181768;28;20068;-84
2023/03/02 02:15:41;;;;;;;17.77;8.45;;;3.30;99.90;;;;;;4156645;28;20132;-83
2023/03/02 02:17:42;;;;;;;16.85;8.45;;;3.30;99.90;;;;;;4168825;28;20041;-83
2023/03/02 02:19:52;;;;;;;16.98;9.40;;;3.30;99.90;;;;;;4153113;28;20292;-83
2023/03/02 02:21:53;;;;;;;18.30;8.57;;;3.30;99.90;;;;;;4153308;28;20120;-83
2023/03/02 02:24:19;;;;;;;17.90;9.20;;;3.30;99.90;;;;;;4163273;28;20050;-83
2023/03/02 02:26:23;;;;;;;19.67;9.38;;;3.30;99.90;;;;;;4174161;28;20460;-83
2023/03/02 02:28:47;;;;;;;19.02;9.82;;;3.20;99.90;;;;;;4164064;28;20131;-83
2023/03/02 02:30:50;;;;;;;18.15;8.77;;;3.30;99.90;;;;;;4169860;28;20401;-83
2023/03/02 02:32:53;;;;;;;19.20;8.75;;;3.30;99.90;;;;;;4139787;28;20129;-83
2023/03/02 02:35:09;;;;;;;21.33;9.25;;;3.30;99.90;;;;;;4167497;28;20576;-83
2023/03/02 02:37:18;;;;;;;19.33;9.25;;;3.30;99.90;;;;;;4150653;28;20054;-83
2023/03/02 02:39:41;;;;;;;19.95;9.55;;;3.70;99.90;;;;;;4152081;28;20054;-83
2023/03/02 02:41:45;;;;;;;18.80;8.90;;;3.20;99.90;;;;;;4180227;28;20050;-83
2023/03/02 02:43:46;;;;;;;19.92;10.10;;;3.40;99.90;;;;;;4155483;28;20045;-82
2023/03/02 02:45:51;;;;;;;17.23;9.98;;;3.20;99.90;;;;;;4184167;28;20041;-83
2023/03/02 02:47:53;;;;;;;20.10;9.38;;;3.20;99.90;;;;;;4166689;28;20131;-83
2023/03/02 02:49:55;;;;;;;19.90;10.20;;;3.20;99.90;;;;;;4184174;28;20045;-83
2023/03/02 02:51:57;;;;;;;21.50;10.68;;;3.20;99.90;;;;;;4166860;28;20105;-83
2023/03/02 02:54:00;;;;;;;20.70;10.15;;;3.80;99.90;;;;;;4180400;28;20064;-84
2023/03/02 02:56:03;;;;;;;22.67;11.05;;;3.30;99.90;;;;;;4177480;28;20167;-83
2023/03/02 02:58:20;;;;;;;23.05;11.52;;;3.10;99.90;;;;;;4175418;28;20565;-83
2023/03/02 03:00:22;;;;;;;19.40;10.32;;;3.30;99.90;;;;;;4156839;28;20050;-83
2023/03/02 03:02:27;;;;;;;26.63;11.40;;;3.30;99.90;;;;;;4161171;28;20053;-84
2023/03/02 03:04:30;;;;;;;21.50;10.80;;;3.50;99.90;;;;;;4166834;28;20096;-84
2023/03/02 03:06:37;;;;;;;25.10;11.23;;;3.20;99.90;;;;;;4161008;28;20068;-83
2023/03/02 03:08:51;;;;;;;21.55;11.15;;;3.60;99.90;;;;;;4166782;28;20045;-83
2023/03/02 03:10:52;;;;;;;19.23;10.15;;;3.30;99.90;;;;;;4170525;28;20080;-84
2023/03/02 03:12:54;;;;;;;20.17;10.43;;;3.30;99.90;;;;;;4147829;28;20054;-84
2023/03/02 03:14:54;;;;;;;21.90;10.88;;;3.10;99.90;;;;;;4152505;28;20049;-83
2023/03/02 03:16:56;;;;;;;21.67;11.52;;;3.10;99.90;;;;;;4136969;28;20049;-83
2023/03/02 03:19:05;;;;;;;20.30;10.55;;;3.10;99.90;;;;;;4164221;28;20049;-83
2023/03/02 03:21:06;;;;;;;21.17;10.98;;;3.10;99.90;;;;;;4184476;28;20067;-82
2023/03/02 03:23:06;;;;;;;22.77;11.23;;;3.70;99.90;;;;;;4183134;28;20120;-82
2023/03/02 03:25:07;;;;;;;24.55;11.43;;;3.30;99.90;;;;;;4183951;28;20508;-84
2023/03/02 03:27:11;;;;;;;20.50;10.13;;;3.10;99.90;;;;;;4166805;28;20046;-82
2023/03/02 03:29:14;;;;;;;25.23;12.00;;;3.10;99.90;;;;;;4150773;28;20494;-82
2023/03/02 03:31:15;;;;;;;21.08;10.77;;;3.10;99.90;;;;;;4184003;28;20063;-82
2023/03/02 03:33:16;;;;;;;23.77;11.23;;;3.30;99.90;;;;;;4183033;28;20063;-83
2023/03/02 03:35:17;;;;;;;24.23;11.63;;;3.10;99.90;;;;;;4138172;28;20514;-83
2023/03/02 03:37:19;;;;;;;27.80;12.02;;;3.10;99.90;;;;;;4149345;28;20050;-83
2023/03/02 03:39:21;;;;;;;28.90;12.35;;;3.10;99.90;;;;;;4183636;28;20489;-83
2023/03/02 03:41:23;;;;;;;26.77;11.93;;;3.00;99.90;;;;;;4147990;28;20053;-83
2023/03/02 03:43:24;;;;;;;24.70;11.32;;;3.10;99.90;;;;;;4169139;28;20493;-83
2023/03/02 03:45:25;;;;;;;23.52;11.32;;;3.10;99.90;;;;;;4147361;28;20056;-83
2023/03/02 03:47:26;;;;;;;26.05;11.82;;;3.00;99.90;;;;;;4133333;28;20088;-83
2023/03/02 03:49:27;;;;;;;24.20;11.35;;;3.80;99.90;;;;;;4169555;28;20512;-83
2023/03/02 03:51:33;;;;;;;24.42;11.60;;;3.00;99.90;;;;;;4183444;28;20049;-83
2023/03/02 03:53:36;;;;;;;26.73;12.10;;;3.00;99.90;;;;;;4183041;28;20575;-82
2023/03/02 03:55:36;;;;;;;26.48;12.85;;;3.00;99.90;;;;;;4165991;28;20195;-82
2023/03/02 03:57:37;;;;;;;42.28;13.38;;;3.40;99.90;;;;;;4179842;28;20041;-82
2023/03/02 03:59:38;;;;;;;28.85;12.98;;;3.00;99.90;;;;;;4141551;28;20045;-82
2023/03/02 04:01:42;;;;;;;34.75;12.70;;;3.00;99.90;;;;;;4161723;28;20814;-83
2023/03/02 04:03:42;;;;;;;30.50;14.38;;;3.00;99.90;;;;;;4171242;28;20844;-82
2023/03/02 04:05:43;;;;;;;34.33;14.88;;;3.40;99.90;;;;;;4178282;28;20041;-83
2023/03/02 04:07:44;;;;;;;35.22;15.32;;;3.70;99.90;;;;;;4137814;28;20069;-83
2023/03/02 04:09:45;;;;;;;42.92;14.00;;;2.90;99.90;;;;;;4177968;28;20073;-82
2023/03/02 04:11:50;;;;;;;39.30;15.05;;;2.90;99.90;;;;;;4174296;28;20123;-83
2023/03/02 04:13:50;;;;;;;36.40;15.18;;;3.10;99.90;;;;;;4177770;28;20493;-83
2023/03/02 04:15:51;;;;;;;31.60;13.45;;;2.80;99.90;;;;;;4155108;28;20140;-84
2023/03/02 04:17:52;;;;;;;52.50;15.30;;;2.80;99.90;;;;;;4143509;28;20046;-84
2023/03/02 04:19:54;;;;;;;42.67;15.55;;;3.20;99.90;;;;;;4173016;28;20041;-84
2023/03/02 04:21:55;;;;;;;42.25;15.52;;;3.70;99.90;;;;;;4146595;28;20088;-83
2023/03/02 04:23:56;;;;;;;44.55;15.52;;;3.00;99.90;;;;;;4183375;28;20049;-83
2023/03/02 04:25:57;;;;;;;44.35;16.25;;;2.70;99.90;;;;;;4183537;28;20067;-83
2023/03/02 04:27:58;;;;;;;44.00;16.27;;;2.90;99.90;;;;;;4148805;28;20458;-83
2023/03/02 04:29:59;;;;;;;40.78;14.98;;;2.60;99.90;;;;;;4182570;28;20087;-83
2023/03/02 04:31:59;;;;;;;46.00;17.88;;;3.30;99.90;;;;;;4158626;28;20114;-83
2023/03/02 04:34:03;;;;;;;44.60;17.45;;;2.60;99.90;;;;;;4155990;28;20139;-83
2023/03/02 04:36:10;;;;;;;46.67;16.20;;;2.70;99.90;;;;;;4157740;28;20050;-83
2023/03/02 04:38:18;;;;;;;42.15;14.80;;;2.90;99.90;;;;;;4157364;28;20103;-83
2023/03/02 04:40:19;;;;;;;43.70;13.63;;;2.60;99.90;;;;;;4160489;28;20442;-83
2023/03/02 04:42:20;;;;;;;43.70;14.65;;;2.60;99.90;;;;;;4161609;28;20052;-83
2023/03/02 04:44:22;;;;;;;64.53;16.15;;;2.80;99.90;;;;;;4186664;28;20093;-83
2023/03/02 04:46:26;;;;;;;80.07;16.10;;;2.50;99.90;;;;;;4141770;28;20054;-83
2023/03/02 04:48:33;;;;;;;49.38;15.40;;;2.50;99.90;;;;;;4159355;28;20060;-83
2023/03/02 04:50:33;;;;;;;60.22;16.38;;;3.40;99.90;;;;;;4190510;28;20049;-82
2023/03/02 04:52:36;;;;;;;41.67;15.70;;;2.40;99.90;;;;;;4181095;28;20076;-82
2023/03/02 04:54:36;;;;;;;72.90;15.88;;;2.40;99.90;;;;;;4178267;28;20564;-82
2023/03/02 04:56:38;;;;;;;73.72;17.10;;;2.40;99.90;;;;;;4163224;28;20115;-82
2023/03/02 04:58:40;;;;;;;39.65;14.73;;;2.40;99.90;;;;;;4185592;28;20192;-82
2023/03/02 05:00:41;;;;;;;51.78;15.02;;;2.60;99.90;;;;;;4163055;28;20545;-82
2023/03/02 05:02:43;;;;;;;40.72;16.35;;;3.20;99.90;;;;;;4153843;28;20054;-82
2023/03/02 05:04:45;;;;;;;48.30;16.10;;;2.40;99.90;;;;;;4162630;28;20067;-82
2023/03/02 05:06:46;;;;;;;60.20;16.85;;;2.40;99.90;;;;;;4184559;28;20048;-82
2023/03/02 05:08:47;;;;;;;48.28;14.20;;;2.80;99.90;;;;;;4165856;28;20601;-82
2023/03/02 05:10:48;;;;;;;61.63;15.75;;;2.90;99.90;;;;;;4165781;28;20123;-83
2023/03/02 05:13:22;;;;;;;49.38;14.73;;;2.60;99.90;;;;;;4169814;28;20045;-83
2023/03/02 05:15:16;;;;;;;55.97;14.83;;;2.40;99.90;;;;;;4146569;28;20092;-83
2023/03/02 05:17:17;;;;;;;47.83;14.23;;;2.40;99.90;;;;;;4182277;28;20041;-82
2023/03/02 05:19:18;;;;;;;50.28;15.13;;;2.70;99.90;;;;;;4177192;28;20049;-82
2023/03/02 05:21:19;;;;;;;51.30;14.65;;;2.50;99.90;;;;;;4165923;28;20049;-83
2023/03/02 05:23:25;;;;;;;46.38;14.48;;;2.50;99.90;;;;;;4166203;28;20045;-83
2023/03/02 05:25:29;;;;;;;37.20;14.00;;;2.90;99.90;;;;;;4184836;28;20053;-83
2023/03/02 05:27:31;;;;;;;65.38;16.20;;;2.50;99.90;;;;;;4183827;28;20053;-83
2023/03/02 05:29:32;;;;;;;52.97;14.02;;;2.60;99.90;;;;;;4164708;28;20038;-83
2023/03/02 05:31:39;;;;;;;45.75;14.10;;;2.50;99.90;;;;;;4162395;28;20109;-82
2023/03/02 05:33:40;;;;;;;54.75;15.23;;;2.50;99.90;;;;;;4171093;28;20037;-83
2023/03/02 05:35:44;;;;;;;43.72;15.43;;;2.90;99.90;;;;;;4178247;28;20048;-83
2023/03/02 05:37:45;;;;;;;47.20;12.30;;;2.50;99.90;;;;;;4152690;28;20044;-83
2023/03/02 05:39:48;;;;;;;42.90;14.80;;;3.00;99.90;;;;;;4181895;28;20033;-84
2023/03/02 05:41:48;;;;;;;54.38;13.57;;;2.40;99.90;;;;;;4142985;28;20108;-84
2023/03/02 05:43:49;;;;;;;57.47;12.13;;;2.50;99.90;;;;;;4132079;28;20062;-84
2023/03/02 05:45:50;;;;;;;43.20;12.05;;;3.20;99.90;;;;;;4171084;28;20044;-84
2023/03/02 05:47:51;;;;;;;37.97;12.30;;;2.30;99.90;;;;;;4176647;28;20041;-83
2023/03/02 05:49:52;;;;;;;53.00;13.00;;;2.30;99.90;;;;;;4162382;28;20044;-83
2023/03/02 05:51:53;;;;;;;50.58;13.05;;;2.50;99.90;;;;;;4164687;28;20065;-83
2023/03/02 05:53:54;;;;;;;71.18;12.52;;;2.50;99.90;;;;;;4146185;28;20128;-84
2023/03/02 05:55:57;;;;;;;55.20;13.02;;;2.30;99.90;;;;;;4174527;28;20042;-83
2023/03/02 05:57:57;;;;;;;42.25;12.85;;;2.30;99.90;;;;;;4180350;28;20045;-84
2023/03/02 05:59:58;;;;;;;40.72;12.10;;;2.30;99.90;;;;;;4181784;28;20041;-83
2023/03/02 06:01:59;;;;;;;31.15;12.15;;;2.30;99.90;;;;;;4181819;28;20481;-83
2023/03/02 06:04:00;;;;;;;45.05;11.98;;;2.70;99.90;;;;;;4181049;28;20072;-84
2023/03/02 06:06:01;;;;;;;26.95;11.02;;;2.30;99.90;;;;;;4181702;28;20041;-84
2023/03/02 06:08:02;;;;;;;42.42;12.52;;;2.40;99.90;;;;;;4174681;28;20045;-84
2023/03/02 06:10:04;;;;;;;38.28;12.57;;;2.40;99.90;;;;;;4139179;28;20128;-83
2023/03/02 06:12:06;;;;;;;31.98;13.32;;;2.30;99.90;;;;;;4155560;28;20129;-84
2023/03/02 06:14:07;;;;;;;35.38;12.07;;;2.30;99.90;;;;;;4148368;28;20046;-83
2023/03/02 06:16:08;;;;;;;34.83;13.02;;;2.30;99.90;;;;;;4162148;28;20727;-83
2023/03/02 06:18:11;;;;;;;50.10;12.90;;;2.40;99.90;;;;;;4163289;28;20088;-83
2023/03/02 06:20:14;;;;;;;34.40;13.70;;;3.00;99.90;;;;;;4181516;28;20485;-83
2023/03/02 06:22:17;;;;;;;41.53;13.73;;;2.40;99.90;;;;;;4181846;28;20045;-84
2023/03/02 06:24:19;;;;;;;46.00;13.50;;;2.40;99.90;;;;;;4181716;28;20060;-83
2023/03/02 06:26:20;;;;;;;94.20;15.98;;;3.30;99.90;;;;;;4163948;28;20457;-83
2023/03/02 06:28:21;;;;;;;38.60;12.38;;;2.40;99.90;;;;;;4181457;28;20107;-83
2023/03/02 06:30:24;;;;;;;31.15;13.13;;;2.30;99.90;;;;;;4153884;28;20046;-83
2023/03/02 06:32:26;;;;;;;33.40;13.50;;;2.90;99.90;;;;;;4141587;28;20054;-84
2023/03/02 06:34:28;;;;;;;64.90;13.32;;;3.10;99.90;;;;;;4145307;28;20570;-84
2023/03/02 06:36:30;;;;;;;39.72;12.43;;;2.30;99.90;;;;;;4175963;28;20049;-84
2023/03/02 06:38:30;;;;;;;42.95;12.35;;;3.10;99.90;;;;;;4164079;28;20413;-84
2023/03/02 06:40:31;;;;;;;43.60;13.10;;;3.20;99.90;;;;;;4148357;28;20141;-84
2023/03/02 06:42:32;;;;;;;53.22;13.63;;;2.30;99.90;;;;;;4153292;28;20045;-83
2023/03/02 06:44:33;;;;;;;55.38;13.00;;;2.90;99.90;;;;;;4159730;28;20085;-83
2023/03/02 06:46:34;;;;;;;53.53;12.85;;;2.20;99.90;;;;;;4158755;28;20073;-83
2023/03/02 06:48:35;;;;;;;52.40;12.18;;;2.70;99.90;;;;;;4149091;28;20148;-83
2023/03/02 06:50:36;;;;;;;74.75;13.55;;;2.60;99.90;;;;;;4183057;28;20888;-82
2023/03/02 06:52:36;;;;;;;59.72;13.77;;;3.40;99.90;;;;;;4177479;28;20037;-83
2023/03/02 06:54:38;;;;;;;56.10;12.18;;;2.10;99.90;;;;;;4183002;28;20493;-83
2023/03/02 06:56:39;;;;;;;40.47;12.15;;;2.10;99.90;;;;;;4181615;28;20126;-84
2023/03/02 06:58:40;;;;;;;73.20;13.23;;;2.10;99.90;;;;;;4163299;28;20053;-82
2023/03/02 07:00:41;;;;;;;48.58;12.27;;;3.10;99.90;;;;;;4167258;28;20509;-84
2023/03/02 07:02:43;;;;;;;89.65;14.02;;;2.10;99.90;;;;;;4185334;28;20131;-83
2023/03/02 07:04:45;;;;;;;169.05;16.92;;;2.40;99.90;;;;;;4168579;28;20497;-83
2023/03/02 07:06:49;;;;;;;34.17;11.13;;;2.10;99.90;;;;;;4186179;28;20056;-83
2023/03/02 07:08:50;;;;;;;66.93;13.13;;;2.20;99.90;;;;;;4138694;28;20046;-83
2023/03/02 07:10:51;;;;;;;63.72;12.13;;;2.30;99.90;;;;;;4152359;28;20560;-84
2023/03/02 07:12:52;;;;;;;33.05;11.10;;;2.10;99.90;;;;;;4181695;28;20045;-83
2023/03/02 07:14:53;;;;;;;84.05;15.13;;;2.40;99.90;;;;;;4184201;28;20405;-84
2023/03/02 07:16:56;;;;;;;89.53;14.75;;;2.50;99.90;;;;;;4161056;28;20041;-85
2023/03/02 07:18:57;;;;;;;41.72;11.52;;;2.50;99.90;;;;;;4153325;28;20462;-84
2023/03/02 07:20:58;;;;;;;45.28;12.50;;;2.40;99.90;;;;;;4158979;28;20092;-83
2023/03/02 07:22:59;;;;;;;85.57;14.68;;;2.60;99.90;;;;;;4167541;28;20102;-84
2023/03/02 07:25:00;;;;;;;64.20;12.95;;;1.50;99.90;;;;;;4151049;28;20050;-84
2023/03/02 07:27:02;;;;;;;79.22;16.33;;;3.20;99.90;;;;;;4168455;28;20053;-83
2023/03/02 07:29:04;;;;;;;46.75;12.75;;;2.20;99.90;;;;;;4145399;28;20049;-83
2023/03/02 07:31:06;;;;;;;80.50;12.82;;;1.60;99.90;;;;;;4167172;28;20387;-83
2023/03/02 07:33:07;;;;;;;59.90;13.30;;;2.60;99.90;;;;;;4142591;28;20053;-83
2023/03/02 07:35:09;;;;;;;67.03;14.48;;;2.20;99.90;;;;;;4135101;28;20565;-83
2023/03/02 07:37:09;;;;;;;33.67;12.48;;;2.20;99.90;;;;;;4152270;28;20070;-83
2023/03/02 07:39:10;;;;;;;70.35;13.27;;;2.30;99.90;;;;;;4149600;28;20399;-83
2023/03/02 07:41:14;;;;;;;88.95;13.25;;;2.30;99.90;;;;;;4166266;28;20548;-83
2023/03/02 07:43:15;;;;;;;37.08;10.57;;;2.30;99.90;;;;;;4166758;28;20828;-83
2023/03/02 07:45:19;;;;;;;71.55;12.48;;;2.20;99.90;;;;;;4166227;28;20058;-83
2023/03/02 07:47:20;;;;;;;52.63;12.15;;;1.80;99.90;;;;;;4148466;28;20466;-83
2023/03/02 07:49:20;;;;;;;33.55;11.30;;;2.30;99.90;;;;;;4135118;28;20055;-83
2023/03/02 07:51:21;;;;;;;49.80;10.45;;;2.30;99.90;;;;;;4167120;28;20142;-84
2023/03/02 07:53:23;;;;;;;62.83;12.63;;;2.30;99.90;;;;;;4147958;28;20501;-83
2023/03/02 07:55:24;;;;;;;36.08;10.32;;;2.30;99.90;;;;;;4152474;28;20053;-83
2023/03/02 07:57:25;;;;;;;48.63;11.70;;;3.30;99.90;;;;;;4167033;28;20496;-84
2023/03/02 07:59:27;;;;;;;28.45;10.40;;;2.30;99.90;;;;;;4147731;28;20054;-83
2023/03/02 08:01:29;;;;;;;57.03;11.80;;;2.40;99.90;;;;;;4154122;28;20414;-83
2023/03/02 08:03:29;;;;;;;47.95;11.63;;;2.40;99.90;;;;;;4165444;28;20049;-83
2023/03/02 08:05:30;;;;;;;37.58;10.65;;;3.00;99.90;;;;;;4151602;28;20409;-83
2023/03/02 08:07:31;;;;;;;24.85;9.88;;;2.40;99.90;;;;;;4137928;28;20501;-84
2023/03/02 08:09:33;;;;;;;27.90;9.00;;;3.10;99.90;;;;;;4167069;28;20571;-84
2023/03/02 08:11:35;;;;;;;24.25;9.52;;;2.40;99.90;;;;;;4166545;28;20452;-84
2023/03/02 08:13:36;;;;;;;29.80;10.60;;;2.40;99.90;;;;;;4164911;28;20485;-84
2023/03/02 08:15:37;;;;;;;29.30;9.65;;;2.40;99.90;;;;;;4166167;28;20049;-83
2023/03/02 08:17:38;;;;;;;23.75;9.77;;;3.30;99.90;;;;;;4172490;28;20542;-84
2023/03/02 08:19:39;;;;;;;29.88;9.38;;;2.50;99.90;;;;;;4144542;28;20053;-84
2023/03/02 08:21:40;;;;;;;28.98;10.05;;;2.50;99.90;;;;;;4154296;28;20045;-83
2023/03/02 08:23:41;;;;;;;29.70;9.65;;;2.90;99.90;;;;;;4166334;28;20461;-84
2023/03/02 08:25:43;;;;;;;24.35;10.10;;;2.80;99.90;;;;;;4148478;28;20853;-83
2023/03/02 08:27:44;;;;;;;20.55;9.27;;;2.60;99.90;;;;;;4160138;28;20050;-82
2023/03/02 08:29:45;;;;;;;24.85;8.77;;;2.60;99.90;;;;;;4151877;28;20105;-81
2023/03/02 08:31:46;;;;;;;24.48;8.80;;;2.70;99.90;;;;;;4155159;28;20482;-83
2023/03/02 08:33:47;;;;;;;24.08;8.90;;;2.70;99.90;;;;;;4162115;28;20135;-80
2023/03/02 08:36:00;;;;;;;22.17;8.15;;;2.70;99.90;;;;;;4154152;28;20059;-83
2023/03/02 08:38:01;;;;;;;18.70;8.13;;;2.70;99.90;;;;;;4166145;28;20490;-83
2023/03/02 08:40:02;;;;;;;21.90;8.25;;;2.70;99.90;;;;;;4143048;28;20108;-83
2023/03/02 08:42:03;;;;;;;24.60;7.57;;;2.70;99.90;;;;;;4152608;28;20057;-82
2023/03/02 08:44:08;;;;;;;40.58;9.18;;;2.90;99.90;;;;;;4133171;28;20495;-82
2023/03/02 08:46:12;;;;;;;17.23;7.18;;;2.80;99.90;;;;;;4155502;28;20853;-84
2023/03/02 08:48:12;;;;;;;27.83;7.75;;;2.80;99.90;;;;;;4160808;28;20061;-85
2023/03/02 08:50:14;;;;;;;16.83;7.65;;;3.40;99.90;;;;;;4157891;28;20128;-83
2023/03/02 08:52:20;;;;;;;18.63;8.40;;;2.80;99.90;;;;;;4183463;28;20029;-84
2023/03/02 08:54:27;;;;;;;18.63;8.13;;;3.30;99.90;;;;;;4163370;28;20402;-84
2023/03/02 08:56:33;;;;;;;20.17;8.05;;;2.90;99.90;;;;;;4166043;28;20109;-83
2023/03/02 08:58:34;;;;;;;21.65;8.00;;;2.90;99.90;;;;;;4180278;28;20033;-83
2023/03/02 09:00:35;;;;;;;19.42;7.45;;;3.80;99.90;;;;;;4170317;28;20046;-83
2023/03/02 09:02:35;;;;;;;18.10;8.63;;;2.90;99.90;;;;;;4137134;28;20051;-83
2023/03/02 09:04:38;;;;;;;23.60;9.15;;;3.00;99.90;;;;;;4162892;28;20117;-83
2023/03/02 09:06:41;;;;;;;20.38;9.18;;;3.00;99.90;;;;;;4166251;28;20485;-83
2023/03/02 09:08:43;;;;;;;24.13;9.13;;;3.00;99.90;;;;;;4164440;28;20049;-83
2023/03/02 09:10:44;;;;;;;18.67;8.38;;;3.20;99.90;;;;;;4165352;28;20068;-84
2023/03/02 09:12:44;;;;;;;23.67;10.15;;;3.20;99.90;;;;;;4164319;28;20049;-83
2023/03/02 09:14:46;;;;;;;21.83;9.25;;;2.70;99.90;;;;;;4150377;28;20511;-83
2023/03/02 09:16:47;;;;;;;22.40;8.52;;;3.30;99.90;;;;;;4143413;28;20142;-83
2023/03/02 09:18:51;;;;;;;21.33;10.18;;;3.30;99.90;;;;;;4164362;28;20120;-83
2023/03/02 09:20:53;;;;;;;21.48;8.88;;;4.00;99.90;;;;;;4163041;28;20433;-83
2023/03/02 09:22:54;;;;;;;21.15;7.97;;;3.40;99.90;;;;;;4163775;28;20104;-83
2023/03/02 09:24:54;;;;;;;20.67;8.75;;;3.50;99.90;;;;;;4163529;28;20057;-83
2023/03/02 09:26:55;;;;;;;19.92;8.40;;;3.60;99.90;;;;;;4164120;28;20080;-83
2023/03/02 09:28:56;;;;;;;17.63;7.90;;;3.80;99.90;;;;;;4151080;28;20069;-83
2023/03/02 09:30:59;;;;;;;17.15;8.50;;;3.80;99.90;;;;;;4165999;28;20061;-83
2023/03/02 09:33:00;;;;;;;18.30;8.23;;;4.50;99.90;;;;;;4165107;28;20053;-83
2023/03/02 09:35:01;;;;;;;17.98;7.78;;;3.90;99.90;;;;;;4163963;28;20041;-83
2023/03/02 09:37:02;;;;;;;18.58;8.88;;;3.90;99.90;;;;;;4150442;28;20046;-83
2023/03/02 09:39:08;;;;;;;19.08;8.50;;;3.90;99.90;;;;;;4147248;28;20048;-84
2023/03/02 09:41:18;;;;;;;22.10;9.05;;;4.00;99.90;;;;;;4131808;28;20046;-83
2023/03/02 09:43:32;;;;;;;18.83;8.27;;;3.60;99.90;;;;;;4152195;28;20064;-83
2023/03/02 09:45:51;;;;;;;19.98;8.32;;;4.10;99.90;;;;;;4163117;28;20099;-84
2023/03/02 09:48:09;;;;;;;16.60;7.28;;;4.10;99.90;;;;;;4149824;28;20632;-83
2023/03/02 09:50:34;;;;;;;18.25;8.63;;;4.20;99.90;;;;;;4151868;28;20100;-83
2023/03/02 09:52:39;;;;;;;20.35;8.45;;;4.20;99.90;;;;;;4159974;28;20053;-82
2023/03/02 09:54:41;;;;;;;16.95;7.35;;;4.20;99.90;;;;;;4163736;28;20704;-84
2023/03/02 09:57:03;;;;;;;17.58;7.60;;;4.20;99.90;;;;;;4164275;28;20060;-84
2023/03/02 09:59:19;;;;;;;20.25;8.20;;;4.20;99.90;;;;;;4154451;28;20049;-84
2023/03/02 10:01:48;;;;;;;19.75;7.88;;;4.20;99.90;;;;;;4151858;28;20045;-84
2023/03/02 10:04:23;;;;;;;17.45;7.00;;;4.30;99.90;;;;;;4164125;28;20057;-84
2023/03/02 10:06:25;;;;;;;20.02;7.85;;;4.30;99.90;;;;;;4152919;28;20489;-84
2023/03/02 10:08:29;;;;;;;19.25;7.90;;;4.40;99.90;;;;;;4148042;28;20054;-84
2023/03/02 10:10:38;;;;;;;17.58;8.00;;;4.50;99.90;;;;;;4159163;28;20136;-84
2023/03/02 10:13:08;;;;;;;19.20;8.98;;;4.10;99.90;;;;;;4160263;28;20192;-83
2023/03/02 10:15:21;;;;;;;14.18;6.20;;;4.60;99.90;;;;;;4165212;28;20045;-84
2023/03/02 10:17:43;;;;;;;17.60;7.47;;;4.80;99.90;;;;;;4150421;28;20556;-83
2023/03/02 10:19:50;;;;;;;18.83;8.07;;;5.00;99.90;;;;;;4165940;28;20048;-83
2023/03/02 10:22:07;;;;;;;14.15;6.47;;;5.10;99.90;;;;;;4162348;28;20056;-82
2023/03/02 10:24:30;;;;;;;14.80;6.95;;;5.30;99.90;;;;;;4164944;28;20052;-83
2023/03/02 10:26:38;;;;;;;14.60;6.60;;;5.30;99.90;;;;;;4166452;28;20050;-83
2023/03/02 10:28:48;;;;;;;17.70;7.13;;;5.40;99.90;;;;;;4146418;28;20050;-84
2023/03/02 10:31:08;;;;;;;16.48;6.97;;;5.50;99.90;;;;;;4148654;28;20138;-83
2023/03/02 10:33:15;;;;;;;16.30;7.25;;;5.90;99.90;;;;;;4151824;28;20401;-83
2023/03/02 10:35:22;;;;;;;14.27;6.47;;;5.90;99.90;;;;;;4118240;28;20551;-83
2023/03/02 10:37:28;;;;;;;14.43;6.38;;;6.10;99.90;;;;;;4153953;28;20128;-83
2023/03/02 10:39:28;;;;;;;16.40;7.18;;;6.20;99.90;;;;;;4143761;28;20486;-83